Terminal Aerodrome Forecast
Issued by NWS

Home | Current Version | Previous Version | Text Only | Print | Product List | Glossary On
Versions: 1 2 3 4 5 6 7 8 9 10 11 12 13
072
FTUS43 KLSX 250531
TAFCPS
TAF
KCPS 250531Z 2506/2606 26007KT P6SM BKN200
     FM250700 32009KT P6SM BKN200
     FM251200 34009KT P6SM FEW250
     FM252300 31004KT P6SM SKC=

USA.gov is the U.S. government's official web portal to all federal, state and local government web resources and services.